createdAt,value
2018-12-27T00:04:49.729Z,2.50
2018-12-27T00:09:53.423Z,2.60
2018-12-27T00:14:57.121Z,2.70
2018-12-27T00:20:05.081Z,2.70
2018-12-27T00:25:10.302Z,2.70
2018-12-27T00:30:14.060Z,2.50
2018-12-27T00:35:19.484Z,2.40
2018-12-27T00:40:27.518Z,2.50
2018-12-27T00:45:31.257Z,2.50
2018-12-27T00:50:36.675Z,2.50
2018-12-27T00:55:42.094Z,2.40
2018-12-27T01:00:47.514Z,2.40
2018-12-27T01:05:52.448Z,2.30
2018-12-27T01:10:58.934Z,2.40
2018-12-27T01:16:05.704Z,2.30
2018-12-27T01:21:13.522Z,2.40
2018-12-27T01:26:20.007Z,2.30
2018-12-27T01:31:23.780Z,2.30
2018-12-27T01:36:27.721Z,2.30
2018-12-27T01:41:31.533Z,2.40
2018-12-27T01:46:35.457Z,2.50
2018-12-27T01:51:39.390Z,2.50
2018-12-27T01:56:44.953Z,2.50
2018-12-27T02:02:00.357Z,2.50
2018-12-27T02:07:04.140Z,2.50
2018-12-27T02:12:07.910Z,2.60
2018-12-27T02:17:11.692Z,2.60
2018-12-27T02:22:21.350Z,2.50
2018-12-27T02:27:30.766Z,2.40
2018-12-27T02:32:33.694Z,2.40
2018-12-27T02:37:40.403Z,2.50
2018-12-27T02:42:44.301Z,2.50
2018-12-27T02:47:48.236Z,2.50
2018-12-27T02:52:54.784Z,2.50
2018-12-27T02:57:58.555Z,2.50
2018-12-27T03:03:02.327Z,2.50
2018-12-27T03:08:06.099Z,2.50
2018-12-27T03:13:09.874Z,2.30
2018-12-27T03:18:16.359Z,2.30
2018-12-27T03:23:22.819Z,2.40
2018-12-27T03:28:28.322Z,2.30
2018-12-27T03:33:35.055Z,2.30
2018-12-27T03:38:39.867Z,2.20
2018-12-27T03:43:45.042Z,2.00
2018-12-27T03:48:50.473Z,1.80
2018-12-27T03:53:54.202Z,1.70
2018-12-27T03:58:58.011Z,1.60
2018-12-27T04:04:03.396Z,1.60
2018-12-27T04:09:07.144Z,1.70
2018-12-27T04:14:12.529Z,1.70
2018-12-27T04:19:16.133Z,1.50
2018-12-27T04:24:20.498Z,1.50
2018-12-27T04:29:25.999Z,1.30
2018-12-27T04:34:33.331Z,1.20
2018-12-27T04:39:39.642Z,1.20
2018-12-27T04:44:43.497Z,1.20
2018-12-27T04:49:49.010Z,1.10
2018-12-27T04:54:52.635Z,1.10
2018-12-27T04:59:58.665Z,1.30
2018-12-27T05:05:04.260Z,1.50
2018-12-27T05:10:07.964Z,1.70
2018-12-27T05:15:16.000Z,1.90
2018-12-27T05:20:24.165Z,1.70
2018-12-27T05:25:29.481Z,1.80
2018-12-27T05:30:34.713Z,1.60
2018-12-27T05:35:38.314Z,1.40
2018-12-27T05:40:41.926Z,1.20
2018-12-27T05:45:45.539Z,1.20
2018-12-27T05:50:49.293Z,1.30
2018-12-27T05:55:52.924Z,1.40
2018-12-27T06:00:56.548Z,1.60
2018-12-27T06:06:01.786Z,1.70
2018-12-27T06:11:05.412Z,1.60
2018-12-27T06:16:09.030Z,1.30
2018-12-27T06:21:21.282Z,1.40
2018-12-27T06:26:30.235Z,1.50
2018-12-27T06:31:33.848Z,1.70
2018-12-27T06:36:43.145Z,1.30
2018-12-27T06:41:51.342Z,1.50
2018-12-27T06:46:54.967Z,1.80
2018-12-27T06:52:03.187Z,1.90
2018-12-27T06:57:08.595Z,1.70
2018-12-27T07:02:12.246Z,1.60
2018-12-27T07:07:15.869Z,1.50
2018-12-27T07:12:24.976Z,1.50
2018-12-27T07:17:28.601Z,1.60
2018-12-27T07:22:35.290Z,1.60
2018-12-27T07:27:40.544Z,1.70
2018-12-27T07:32:46.446Z,1.70
2018-12-27T07:37:55.347Z,1.90
2018-12-27T07:43:01.693Z,2.00
2018-12-27T07:48:05.319Z,2.00
2018-12-27T07:53:09.195Z,2.10
2018-12-27T07:58:17.577Z,2.30
2018-12-27T08:03:21.202Z,2.40
2018-12-27T08:08:24.810Z,2.30
2018-12-27T08:13:30.123Z,2.20
2018-12-27T08:18:36.602Z,1.80
2018-12-27T08:23:40.232Z,1.60
2018-12-27T08:28:45.386Z,1.60
2018-12-27T08:33:49.009Z,1.70
2018-12-27T08:38:52.629Z,1.50
2018-12-27T08:43:56.252Z,1.70
2018-12-27T08:49:04.032Z,1.70
2018-12-27T08:54:08.473Z,1.70
2018-12-27T08:59:15.075Z,1.90
2018-12-27T09:04:19.718Z,2.10
2018-12-27T09:09:23.340Z,2.00
2018-12-27T09:14:26.966Z,2.20
2018-12-27T09:19:32.190Z,2.10
2018-12-27T09:24:38.978Z,2.10
2018-12-27T09:29:42.595Z,1.90
2018-12-27T09:34:47.003Z,1.80
2018-12-27T09:39:56.505Z,1.60
2018-12-27T09:45:00.145Z,2.00
2018-12-27T09:50:07.088Z,2.10
2018-12-27T09:55:10.711Z,2.10
2018-12-27T10:00:14.319Z,2.10
2018-12-27T10:05:17.949Z,1.80
2018-12-27T10:10:21.553Z,1.70
2018-12-27T10:15:25.165Z,1.90
2018-12-27T10:20:31.599Z,2.10
2018-12-27T10:25:41.143Z,2.30
2018-12-27T10:30:40.487Z,2.00
2018-12-27T10:35:45.822Z,2.00
2018-12-27T10:40:55.159Z,2.00
2018-12-27T10:46:00.408Z,1.60
2018-12-27T10:51:06.436Z,1.80
2018-12-27T10:56:10.059Z,2.20
2018-12-27T11:01:13.675Z,2.50
2018-12-27T11:06:17.295Z,2.20
2018-12-27T11:11:20.924Z,1.60
2018-12-27T11:16:24.541Z,1.60
2018-12-27T11:21:30.825Z,1.80
2018-12-27T11:26:34.531Z,2.10
2018-12-27T11:31:38.427Z,2.20
2018-12-27T11:36:42.058Z,2.40
2018-12-27T11:41:45.675Z,2.20
2018-12-27T11:46:49.283Z,2.40
2018-12-27T11:51:55.215Z,2.00
2018-12-27T11:57:00.067Z,2.30
2018-12-27T12:02:03.612Z,2.00
2018-12-27T12:07:07.218Z,2.10
2018-12-27T12:12:19.169Z,2.40
2018-12-27T12:17:24.592Z,2.40
2018-12-27T12:22:31.098Z,1.90
2018-12-27T12:27:34.777Z,2.10
2018-12-27T12:32:39.286Z,2.40
2018-12-27T12:37:46.251Z,2.70
2018-12-27T12:42:49.930Z,2.60
2018-12-27T12:47:53.542Z,2.90
2018-12-27T12:53:05.961Z,3.10
2018-12-27T12:58:12.507Z,3.20
2018-12-27T13:03:21.631Z,3.40
2018-12-27T13:08:27.107Z,3.40
2018-12-27T13:13:33.518Z,3.40
2018-12-27T13:18:37.152Z,3.60
2018-12-27T13:23:40.843Z,3.50
2018-12-27T13:28:49.910Z,3.50
2018-12-27T13:33:59.546Z,3.40
2018-12-27T13:39:03.256Z,3.40
2018-12-27T13:44:06.875Z,3.10
2018-12-27T13:49:14.123Z,2.80
2018-12-27T13:54:21.697Z,2.60
2018-12-27T13:59:26.219Z,2.60
2018-12-27T14:04:29.954Z,2.70
2018-12-27T14:09:33.573Z,2.60
2018-12-27T14:14:37.218Z,2.60
2018-12-27T14:19:43.607Z,2.50
2018-12-27T14:24:50.477Z,2.40
2018-12-27T14:29:56.790Z,2.30
2018-12-27T14:35:00.442Z,2.10
2018-12-27T14:40:06.495Z,2.30
2018-12-27T14:45:11.920Z,2.50
2018-12-27T14:50:17.079Z,2.60
2018-12-27T14:55:23.485Z,2.60
2018-12-27T15:00:31.650Z,2.40
2018-12-27T15:05:39.801Z,2.40
2018-12-27T15:10:45.100Z,2.70
2018-12-27T15:15:54.764Z,2.90
2018-12-27T15:21:02.793Z,2.90
2018-12-27T15:26:06.227Z,3.10
2018-12-27T15:31:12.558Z,3.10
2018-12-27T15:36:23.635Z,3.20
2018-12-27T15:41:35.934Z,3.20
2018-12-27T15:46:45.570Z,3.10
2018-12-27T15:51:49.630Z,3.20
2018-12-27T15:56:53.314Z,3.10
2018-12-27T16:01:56.942Z,2.80
2018-12-27T16:07:03.625Z,2.90
2018-12-27T16:12:07.300Z,2.70
2018-12-27T16:17:10.928Z,2.50
2018-12-27T16:22:14.552Z,2.60
2018-12-27T16:27:19.795Z,2.80
2018-12-27T16:32:25.048Z,3.00
2018-12-27T16:37:30.646Z,3.10
2018-12-27T16:42:39.688Z,3.20
2018-12-27T16:47:43.322Z,3.20
2018-12-27T16:52:46.975Z,3.30
2018-12-27T16:57:51.087Z,3.20
2018-12-27T17:02:57.550Z,3.20
2018-12-27T17:08:01.184Z,3.30
2018-12-27T17:13:06.470Z,3.30
2018-12-27T17:18:11.760Z,3.30
2018-12-27T17:23:17.013Z,3.40
2018-12-27T17:28:22.259Z,3.40
2018-12-27T17:33:31.694Z,3.40
2018-12-27T17:38:35.346Z,3.40
2018-12-27T17:43:46.236Z,3.30
2018-12-27T17:48:49.867Z,3.20
2018-12-27T17:53:55.151Z,3.20
2018-12-27T17:59:01.564Z,3.20
2018-12-27T18:04:05.242Z,3.30
2018-12-27T18:09:10.543Z,3.40
2018-12-27T18:14:14.409Z,3.30
2018-12-27T18:19:18.030Z,3.50
2018-12-27T18:24:24.565Z,3.60
2018-12-27T18:29:32.792Z,3.50
2018-12-27T18:34:38.077Z,3.40
2018-12-27T18:39:42.195Z,3.30
2018-12-27T18:44:48.808Z,3.10
2018-12-27T18:49:55.383Z,3.00
2018-12-27T18:54:59.189Z,2.80
2018-12-27T19:00:02.971Z,2.70
2018-12-27T19:05:09.274Z,2.60
2018-12-27T19:10:15.922Z,2.50
2018-12-27T19:15:21.447Z,2.50
2018-12-27T19:20:29.663Z,2.50
2018-12-27T19:25:36.200Z,2.40
2018-12-27T19:30:45.624Z,2.40
2018-12-27T19:35:49.263Z,2.50
2018-12-27T19:40:52.949Z,2.50
2018-12-27T19:45:58.462Z,2.60
2018-12-27T19:51:04.785Z,2.20
2018-12-27T19:56:08.389Z,2.10
2018-12-27T20:01:13.702Z,2.20
2018-12-27T20:06:20.020Z,2.30
2018-12-27T20:11:24.251Z,2.30
2018-12-27T20:16:30.927Z,2.00
2018-12-27T20:21:34.530Z,2.20
2018-12-27T20:26:40.902Z,1.90
2018-12-27T20:31:46.195Z,2.10
2018-12-27T20:36:52.513Z,2.30
2018-12-27T20:41:56.127Z,2.60
2018-12-27T20:47:00.355Z,2.90
2018-12-27T20:52:08.724Z,3.00
2018-12-27T20:57:13.968Z,3.10
2018-12-27T21:02:18.399Z,3.10
2018-12-27T21:07:22.327Z,3.30
2018-12-27T21:12:31.874Z,3.40
2018-12-27T21:17:44.515Z,3.40
2018-12-27T21:22:52.262Z,3.40
2018-12-27T21:27:55.922Z,3.40
2018-12-27T21:33:01.201Z,3.50
2018-12-27T21:38:07.510Z,3.60
2018-12-27T21:43:11.285Z,3.50
2018-12-27T21:48:16.520Z,3.50
2018-12-27T21:53:22.914Z,3.30
2018-12-27T21:58:30.821Z,3.30
2018-12-27T22:03:37.292Z,3.40
2018-12-27T22:08:40.915Z,3.50
2018-12-27T22:13:44.608Z,3.50
2018-12-27T22:18:51.004Z,3.50
2018-12-27T22:23:55.244Z,3.60
2018-12-27T22:28:59.063Z,3.50
2018-12-27T22:34:02.942Z,3.20
2018-12-27T22:39:07.815Z,3.10
2018-12-27T22:44:11.663Z,3.10
2018-12-27T22:49:15.539Z,3.10
2018-12-27T22:54:19.422Z,3.00
2018-12-27T22:59:23.227Z,3.00
2018-12-27T23:04:27.104Z,2.80
2018-12-27T23:09:33.674Z,2.70
2018-12-27T23:14:38.973Z,2.80
2018-12-27T23:19:42.589Z,2.60
2018-12-27T23:24:46.239Z,2.60
2018-12-27T23:29:49.850Z,2.50
2018-12-27T23:34:56.560Z,2.40
2018-12-27T23:40:00.173Z,2.50
2018-12-27T23:45:03.848Z,2.60
2018-12-27T23:50:07.463Z,2.40
2018-12-27T23:55:11.145Z,2.40
